Terminal Aerodrome Forecast
Issued by NWS Charleston, WV

Current Version | Previous Version | Graphics & Text | Print | Product List | Glossary On
Versions: 1 2 3 4 5 6 7 8 9 10 11 12 13 14 15 16 17 18 19 20 21 22 23 24 25 26
005
FTUS41 KRLX 200856 AAA
TAFEKN
TAF AMD
KEKN 200856Z 2009/2106 22005KT 6SM BR FEW002
      TEMPO 2010/2011 2SM BR
     FM201100 00000KT 1/4SM FG BKN001
     FM201300 VRB03KT 4SM BR SCT002
     FM201330 26009KT P6SM FEW250
     FM201600 27011G23KT P6SM FEW050
     FM210000 24004KT P6SM SCT250=

USA.gov is the U.S. government's official web portal to all federal, state and local government web resources and services.